createdAt,value
2018-05-06T00:01:58.452Z,13.80
2018-05-06T00:04:26.742Z,13.80
2018-05-06T00:06:55.037Z,13.80
2018-05-06T00:09:22.561Z,13.80
2018-05-06T00:11:50.077Z,13.90
2018-05-06T00:14:17.603Z,13.80
2018-05-06T00:16:45.129Z,13.80
2018-05-06T00:19:12.653Z,13.70
2018-05-06T00:21:40.182Z,13.60
2018-05-06T00:24:07.701Z,13.70
2018-05-06T00:26:35.216Z,13.70
2018-05-06T00:29:02.748Z,13.60
2018-05-06T00:31:30.258Z,13.60
2018-05-06T00:33:57.789Z,13.60
2018-05-06T00:36:25.348Z,13.50
2018-05-06T00:38:52.867Z,13.50
2018-05-06T00:41:20.384Z,13.50
2018-05-06T00:43:48.676Z,13.50
2018-05-06T00:46:16.290Z,13.50
2018-05-06T00:48:43.798Z,13.50
2018-05-06T00:51:11.278Z,13.50
2018-05-06T00:53:39.558Z,13.40
2018-05-06T00:56:07.845Z,13.40
2018-05-06T00:58:35.375Z,13.40
2018-05-06T01:01:02.904Z,13.40
2018-05-06T01:03:30.415Z,13.30
2018-05-06T01:05:57.938Z,13.20
2018-05-06T01:08:25.505Z,13.20
2018-05-06T01:10:53.025Z,13.10
2018-05-06T01:13:20.534Z,13.00
2018-05-06T01:15:48.042Z,13.00
2018-05-06T01:18:15.570Z,12.90
2018-05-06T01:20:43.085Z,12.80
2018-05-06T01:23:10.589Z,12.80
2018-05-06T01:25:38.097Z,12.80
2018-05-06T01:28:05.621Z,12.80
2018-05-06T01:30:33.145Z,12.80
2018-05-06T01:33:00.667Z,12.80
2018-05-06T01:35:28.179Z,12.70
2018-05-06T01:37:55.695Z,12.70
2018-05-06T01:40:23.206Z,12.70
2018-05-06T01:42:50.727Z,12.70
2018-05-06T01:45:19.015Z,12.70
2018-05-06T01:47:46.539Z,12.60
2018-05-06T01:50:14.039Z,12.70
2018-05-06T01:52:41.556Z,12.60
2018-05-06T01:55:09.075Z,12.50
2018-05-06T01:57:36.671Z,12.50
2018-05-06T02:00:04.223Z,12.40
2018-05-06T02:02:31.759Z,12.40
2018-05-06T02:04:59.282Z,12.40
2018-05-06T02:07:27.551Z,12.40
2018-05-06T02:09:55.878Z,12.40
2018-05-06T02:12:23.418Z,12.40
2018-05-06T02:14:50.939Z,12.40
2018-05-06T02:17:19.216Z,12.30
2018-05-06T02:19:47.517Z,12.20
2018-05-06T02:22:15.016Z,12.20
2018-05-06T02:24:42.534Z,12.10
2018-05-06T02:27:10.073Z,12.10
2018-05-06T02:29:38.353Z,12.00
2018-05-06T02:32:06.670Z,12.00
2018-05-06T02:34:34.185Z,11.90
2018-05-06T02:37:01.713Z,11.90
2018-05-06T02:39:29.248Z,11.90
2018-05-06T02:41:56.787Z,11.80
2018-05-06T02:44:24.313Z,11.70
2018-05-06T02:46:52.594Z,11.60
2018-05-06T02:49:20.865Z,11.60
2018-05-06T02:51:49.144Z,11.50
2018-05-06T02:54:17.465Z,11.50
2018-05-06T02:56:44.975Z,11.50
2018-05-06T02:59:12.487Z,11.50
2018-05-06T03:01:40.023Z,11.50
2018-05-06T03:04:07.539Z,11.50
2018-05-06T03:06:35.069Z,11.40
2018-05-06T03:09:02.603Z,11.40
2018-05-06T03:11:30.131Z,11.40
2018-05-06T03:13:57.655Z,11.30
2018-05-06T03:16:25.188Z,11.30
2018-05-06T03:18:52.701Z,11.30
2018-05-06T03:21:20.239Z,11.30
2018-05-06T03:23:47.739Z,11.20
2018-05-06T03:26:15.245Z,11.20
2018-05-06T03:28:42.767Z,11.10
2018-05-06T03:31:10.295Z,11.10
2018-05-06T03:33:38.590Z,11.00
2018-05-06T03:36:06.103Z,11.00
2018-05-06T03:38:33.635Z,11.10
2018-05-06T03:41:01.153Z,11.10
2018-05-06T03:43:28.662Z,11.00
2018-05-06T03:45:56.207Z,10.90
2018-05-06T03:48:23.731Z,11.00
2018-05-06T03:50:51.275Z,11.00
2018-05-06T03:53:18.791Z,11.00
2018-05-06T03:55:47.093Z,11.00
2018-05-06T03:58:26.323Z,10.90
2018-05-06T04:00:53.852Z,10.90
2018-05-06T04:03:21.354Z,10.90
2018-05-06T04:05:49.718Z,10.90
2018-05-06T04:08:17.990Z,10.90
2018-05-06T04:10:45.534Z,10.90
2018-05-06T04:13:13.081Z,10.80
2018-05-06T04:15:40.593Z,10.80
2018-05-06T04:18:08.106Z,10.80
2018-05-06T04:20:35.621Z,10.80
2018-05-06T04:23:03.139Z,10.80
2018-05-06T04:25:30.677Z,10.70
2018-05-06T04:27:58.234Z,10.60
2018-05-06T04:30:25.873Z,10.60
2018-05-06T04:32:55.189Z,10.70
2018-05-06T04:35:22.841Z,10.70
2018-05-06T04:37:50.381Z,10.80
2018-05-06T04:40:17.893Z,10.80
2018-05-06T04:42:46.199Z,10.90
2018-05-06T04:45:14.473Z,10.90
2018-05-06T04:47:42.752Z,10.90
2018-05-06T04:50:11.039Z,10.90
2018-05-06T04:52:38.555Z,10.90
2018-05-06T04:55:06.131Z,10.90
2018-05-06T04:57:33.647Z,11.00
2018-05-06T05:00:01.191Z,11.00
2018-05-06T05:02:28.731Z,11.00
2018-05-06T05:04:56.229Z,11.00
2018-05-06T05:07:23.730Z,11.10
2018-05-06T05:09:51.251Z,11.20
2018-05-06T05:12:18.781Z,11.20
2018-05-06T05:14:46.409Z,11.30
2018-05-06T05:17:14.787Z,11.30
2018-05-06T05:19:42.305Z,11.30
2018-05-06T05:22:09.895Z,11.40
2018-05-06T05:24:37.429Z,11.40
2018-05-06T05:27:04.955Z,11.50
2018-05-06T05:29:32.477Z,11.50
2018-05-06T05:32:00.019Z,11.50
2018-05-06T05:34:27.586Z,11.60
2018-05-06T05:36:55.269Z,11.60
2018-05-06T05:39:22.807Z,11.60
2018-05-06T05:41:50.375Z,11.60
2018-05-06T05:44:17.945Z,11.70
2018-05-06T05:46:45.527Z,11.70
2018-05-06T05:49:13.181Z,11.80
2018-05-06T05:51:40.693Z,11.80
2018-05-06T05:54:08.208Z,11.80
2018-05-06T05:56:35.746Z,11.80
2018-05-06T05:59:03.287Z,11.90
2018-05-06T06:01:31.750Z,12.00
2018-05-06T06:03:59.242Z,12.00
2018-05-06T06:06:26.978Z,12.10
2018-05-06T06:08:54.513Z,12.10
2018-05-06T06:11:22.035Z,12.10
2018-05-06T06:13:49.561Z,12.20
2018-05-06T06:16:17.082Z,12.30
2018-05-06T06:18:44.603Z,12.30
2018-05-06T06:21:12.233Z,12.30
2018-05-06T06:23:40.509Z,12.50
2018-05-06T06:26:08.799Z,12.50
2018-05-06T06:28:37.134Z,12.60
2018-05-06T06:31:04.731Z,12.60
2018-05-06T06:33:33.010Z,12.80
2018-05-06T06:36:01.288Z,12.80
2018-05-06T06:38:29.603Z,12.90
2018-05-06T06:40:57.103Z,12.90
2018-05-06T06:43:24.623Z,13.00
2018-05-06T06:45:52.145Z,13.00
2018-05-06T06:48:20.440Z,13.20
2018-05-06T06:50:47.972Z,13.20
2018-05-06T06:53:15.829Z,13.20
2018-05-06T06:55:43.370Z,13.30
2018-05-06T06:58:10.901Z,13.40
2018-05-06T07:00:38.526Z,13.40
2018-05-06T07:03:06.116Z,13.40
2018-05-06T07:05:33.829Z,13.50
2018-05-06T07:08:02.129Z,13.70
2018-05-06T07:10:29.703Z,13.70
2018-05-06T07:12:57.236Z,13.70
2018-05-06T07:15:25.733Z,13.80
2018-05-06T07:17:53.255Z,13.90
2018-05-06T07:20:20.787Z,13.90
2018-05-06T07:22:48.301Z,13.90
2018-05-06T07:25:15.821Z,14.00
2018-05-06T07:27:43.344Z,14.10
2018-05-06T07:30:10.859Z,14.20
2018-05-06T07:32:39.155Z,14.30
2018-05-06T07:35:06.737Z,14.20
2018-05-06T07:37:34.247Z,14.40
2018-05-06T07:40:02.540Z,14.50
2018-05-06T07:42:30.060Z,14.50
2018-05-06T07:44:57.563Z,14.60
2018-05-06T07:47:25.113Z,14.70
2018-05-06T07:49:53.403Z,14.90
2018-05-06T07:52:20.980Z,14.90
2018-05-06T07:54:48.463Z,15.00
2018-05-06T07:57:15.983Z,15.10
2018-05-06T07:59:43.489Z,15.20
2018-05-06T08:02:11.085Z,15.20
2018-05-06T08:04:38.839Z,15.30
2018-05-06T08:07:06.381Z,15.40
2018-05-06T08:09:34.807Z,15.60
2018-05-06T08:12:02.331Z,15.60
2018-05-06T08:14:30.647Z,15.80
2018-05-06T08:16:58.264Z,15.70
2018-05-06T08:19:26.553Z,16.00
2018-05-06T08:21:54.930Z,16.10
2018-05-06T08:24:22.486Z,16.10
2018-05-06T08:26:50.893Z,16.20
2018-05-06T08:29:18.416Z,16.20
2018-05-06T08:31:46.685Z,16.40
2018-05-06T08:34:14.977Z,16.50
2018-05-06T08:36:42.522Z,16.40
2018-05-06T08:39:10.057Z,16.50
2018-05-06T08:41:37.583Z,16.70
2018-05-06T08:44:05.169Z,16.80
2018-05-06T08:46:33.666Z,16.90
2018-05-06T08:49:01.283Z,17.00
2018-05-06T08:51:28.832Z,17.00
2018-05-06T08:53:56.358Z,17.10
2018-05-06T08:56:23.869Z,17.10
2018-05-06T08:58:51.386Z,17.20
2018-05-06T09:01:19.757Z,17.30
2018-05-06T09:03:47.292Z,17.30
2018-05-06T09:06:14.811Z,17.40
2018-05-06T09:08:42.365Z,17.40
2018-05-06T09:11:10.085Z,17.50
2018-05-06T09:13:37.563Z,17.50
2018-05-06T09:16:05.899Z,17.60
2018-05-06T09:18:33.487Z,17.60
2018-05-06T09:21:01.774Z,17.70
2018-05-06T09:23:29.303Z,17.70
2018-05-06T09:25:56.826Z,17.90
2018-05-06T09:28:24.545Z,18.00
2018-05-06T09:30:52.946Z,18.10
2018-05-06T09:33:20.479Z,18.00
2018-05-06T09:35:48.891Z,18.20
2018-05-06T09:38:16.424Z,18.20
2018-05-06T09:40:44.809Z,18.30
2018-05-06T09:43:12.348Z,18.30
2018-05-06T09:45:40.632Z,18.40
2018-05-06T09:48:08.920Z,18.50
2018-05-06T09:50:37.315Z,18.60
2018-05-06T09:53:04.835Z,18.60
2018-05-06T09:55:33.269Z,18.70
2018-05-06T09:58:00.813Z,18.70
2018-05-06T10:00:28.330Z,18.80
2018-05-06T10:02:56.621Z,18.80
2018-05-06T10:05:24.931Z,18.90
2018-05-06T10:07:52.465Z,18.80
2018-05-06T10:10:20.765Z,19.10
2018-05-06T10:12:48.307Z,19.10
2018-05-06T10:15:15.869Z,19.20
2018-05-06T10:17:43.411Z,19.20
2018-05-06T10:20:10.945Z,19.20
2018-05-06T10:22:38.466Z,19.30
2018-05-06T10:25:06.033Z,19.40
2018-05-06T10:27:33.574Z,19.40
2018-05-06T10:30:01.094Z,19.50
2018-05-06T10:32:28.625Z,19.50
2018-05-06T10:34:56.250Z,19.50
2018-05-06T10:37:23.745Z,19.60
2018-05-06T10:39:51.270Z,19.70
2018-05-06T10:42:18.840Z,19.80
2018-05-06T10:44:46.335Z,19.90
2018-05-06T10:47:13.881Z,19.90
2018-05-06T10:49:41.414Z,20.00
2018-05-06T10:52:08.941Z,20.10
2018-05-06T10:54:36.486Z,20.10
2018-05-06T10:57:04.167Z,20.30
2018-05-06T10:59:31.839Z,20.30
2018-05-06T11:01:59.371Z,20.40
2018-05-06T11:04:27.783Z,20.50
2018-05-06T11:06:55.308Z,20.50
2018-05-06T11:09:23.598Z,20.80
2018-05-06T11:11:51.242Z,20.70
2018-05-06T11:14:18.777Z,20.70
2018-05-06T11:16:46.369Z,20.80
2018-05-06T11:19:13.906Z,20.90
2018-05-06T11:21:41.431Z,21.00
2018-05-06T11:24:08.945Z,21.10
2018-05-06T11:26:36.475Z,21.10
2018-05-06T11:29:04.014Z,21.20
2018-05-06T11:31:31.521Z,21.20
2018-05-06T11:33:59.051Z,21.30
2018-05-06T11:36:26.574Z,21.40
2018-05-06T11:38:54.092Z,21.60
2018-05-06T11:41:21.663Z,21.60
2018-05-06T11:43:49.184Z,21.70
2018-05-06T11:46:16.793Z,21.80
2018-05-06T11:48:44.449Z,21.90
2018-05-06T11:51:11.973Z,22.00
2018-05-06T11:53:40.287Z,22.20
2018-05-06T11:56:07.852Z,22.20
2018-05-06T11:58:35.383Z,22.30
2018-05-06T12:01:03.668Z,22.40
2018-05-06T12:03:31.302Z,22.40
2018-05-06T12:05:59.576Z,22.70
2018-05-06T12:08:27.996Z,22.80
2018-05-06T12:10:55.510Z,22.80
2018-05-06T12:13:23.982Z,23.50
2018-05-06T12:15:51.584Z,23.50
2018-05-06T12:18:19.231Z,23.20
2018-05-06T12:20:46.763Z,23.20
2018-05-06T12:23:15.043Z,23.50
2018-05-06T12:25:43.314Z,23.40
2018-05-06T12:28:11.598Z,23.50
2018-05-06T12:30:40.021Z,23.50
2018-05-06T12:33:07.559Z,23.40
2018-05-06T12:35:35.830Z,24.00
2018-05-06T12:38:04.149Z,24.40
2018-05-06T12:40:31.669Z,24.30
2018-05-06T12:42:59.225Z,24.50
2018-05-06T12:45:26.746Z,24.80
2018-05-06T12:47:54.319Z,24.90
2018-05-06T12:50:21.848Z,24.90
2018-05-06T12:52:49.559Z,24.80
2018-05-06T12:55:18.057Z,24.80
2018-05-06T12:57:45.521Z,24.80
2018-05-06T13:00:13.810Z,24.80
2018-05-06T13:02:41.321Z,24.90
2018-05-06T13:05:08.881Z,25.20
2018-05-06T13:07:37.191Z,25.30
2018-05-06T13:10:04.758Z,25.20
2018-05-06T13:12:32.298Z,25.30
2018-05-06T13:14:59.816Z,25.80
2018-05-06T13:17:27.343Z,26.00
2018-05-06T13:19:54.861Z,26.10
2018-05-06T13:22:23.181Z,26.90
2018-05-06T13:24:50.726Z,26.80
2018-05-06T13:27:18.255Z,27.20
2018-05-06T13:29:46.660Z,27.60
2018-05-06T13:32:14.176Z,27.50
2018-05-06T13:34:42.473Z,28.10
2018-05-06T13:37:10.056Z,28.00
2018-05-06T13:39:37.568Z,28.30
2018-05-06T13:42:05.101Z,28.50
2018-05-06T13:44:32.635Z,28.70
2018-05-06T13:47:00.145Z,28.90
2018-05-06T13:49:27.711Z,29.10
2018-05-06T13:51:55.237Z,29.50
2018-05-06T13:54:22.742Z,29.70
2018-05-06T13:56:50.268Z,29.90
2018-05-06T13:59:17.796Z,29.90
2018-05-06T14:01:45.321Z,30.10
2018-05-06T14:04:12.965Z,30.40
2018-05-06T14:06:41.255Z,31.00
2018-05-06T14:09:09.553Z,30.90
2018-05-06T14:11:37.081Z,30.90
2018-05-06T14:14:04.636Z,31.10
2018-05-06T14:16:33.054Z,31.20
2018-05-06T14:19:00.575Z,31.20
2018-05-06T14:21:28.890Z,31.00
2018-05-06T14:23:56.505Z,31.00
2018-05-06T14:26:24.802Z,31.50
2018-05-06T14:28:52.339Z,31.40
2018-05-06T14:31:19.858Z,31.90
2018-05-06T14:33:47.563Z,31.40
2018-05-06T14:36:15.856Z,31.30
2018-05-06T14:38:43.480Z,31.30
2018-05-06T14:41:11.098Z,31.40
2018-05-06T14:43:38.632Z,31.50
2018-05-06T14:46:06.909Z,31.30
2018-05-06T14:48:35.226Z,31.80
2018-05-06T14:51:02.719Z,31.80
2018-05-06T14:53:30.240Z,31.80
2018-05-06T14:55:57.898Z,31.90
2018-05-06T14:58:25.360Z,32.00
2018-05-06T15:00:52.862Z,31.90
2018-05-06T15:03:21.164Z,32.20
2018-05-06T15:05:48.947Z,32.20
2018-05-06T15:08:16.502Z,32.20
2018-05-06T15:10:44.168Z,32.00
2018-05-06T15:13:11.751Z,31.80
2018-05-06T15:15:39.319Z,31.80
2018-05-06T15:18:06.803Z,31.90
2018-05-06T15:20:35.084Z,32.20
2018-05-06T15:23:03.381Z,32.00
2018-05-06T15:25:30.906Z,32.00
2018-05-06T15:27:59.300Z,31.40
2018-05-06T15:30:26.827Z,31.40
2018-05-06T15:32:54.364Z,31.50
2018-05-06T15:35:21.967Z,32.00
2018-05-06T15:37:50.239Z,31.80
2018-05-06T15:40:17.783Z,31.70
2018-05-06T15:42:45.317Z,31.90
2018-05-06T15:45:12.846Z,32.00
2018-05-06T15:47:40.484Z,31.70
2018-05-06T15:50:08.798Z,31.30
2018-05-06T15:52:36.442Z,31.30
2018-05-06T15:55:04.027Z,31.40
2018-05-06T15:57:31.565Z,31.40
2018-05-06T15:59:59.193Z,31.40
2018-05-06T16:02:58.046Z,31.40
2018-05-06T16:05:25.625Z,31.40
2018-05-06T16:07:53.149Z,31.10
2018-05-06T16:10:20.761Z,31.20
2018-05-06T16:12:49.053Z,31.20
2018-05-06T16:15:17.339Z,31.30
2018-05-06T16:17:45.062Z,31.30
2018-05-06T16:20:13.275Z,30.80
2018-05-06T16:22:40.854Z,30.70
2018-05-06T16:25:08.335Z,30.60
2018-05-06T16:27:36.037Z,30.50
2018-05-06T16:30:04.355Z,30.50
2018-05-06T16:32:31.880Z,30.60
2018-05-06T16:34:59.407Z,30.70
2018-05-06T16:37:26.997Z,30.60
2018-05-06T16:39:54.533Z,30.40
2018-05-06T16:42:22.049Z,30.60
2018-05-06T16:44:49.640Z,30.40
2018-05-06T16:47:17.143Z,30.30
2018-05-06T16:49:44.666Z,30.10
2018-05-06T16:52:12.217Z,30.10
2018-05-06T16:54:39.731Z,30.10
2018-05-06T16:57:07.249Z,29.90
2018-05-06T16:59:34.797Z,29.80
2018-05-06T17:02:02.316Z,29.70
2018-05-06T17:04:29.822Z,29.70
2018-05-06T17:06:57.340Z,29.60
2018-05-06T17:09:24.870Z,29.40
2018-05-06T17:11:52.507Z,29.30
2018-05-06T17:14:20.815Z,28.90
2018-05-06T17:16:48.355Z,28.90
2018-05-06T17:19:15.873Z,28.90
2018-05-06T17:21:43.575Z,29.10
2018-05-06T17:24:11.888Z,28.80
2018-05-06T17:26:39.630Z,28.80
2018-05-06T17:29:07.150Z,28.70
2018-05-06T17:31:34.660Z,28.60
2018-05-06T17:34:02.178Z,28.60
2018-05-06T17:36:29.697Z,28.60
2018-05-06T17:38:57.212Z,28.50
2018-05-06T17:41:24.796Z,28.60
2018-05-06T17:43:52.351Z,28.20
2018-05-06T17:46:19.868Z,28.30
2018-05-06T17:48:47.408Z,28.30
2018-05-06T17:51:15.832Z,28.20
2018-05-06T17:53:43.362Z,28.20
2018-05-06T17:56:11.642Z,28.00
2018-05-06T17:58:40.054Z,27.80
2018-05-06T18:01:07.580Z,27.80
2018-05-06T18:03:35.864Z,27.60
2018-05-06T18:06:04.266Z,27.50
2018-05-06T18:08:31.802Z,27.50
2018-05-06T18:11:00.071Z,27.30
2018-05-06T18:13:28.481Z,27.20
2018-05-06T18:15:56.023Z,27.20
2018-05-06T18:18:23.559Z,27.20
2018-05-06T18:20:51.082Z,27.10
2018-05-06T18:23:18.610Z,26.90
2018-05-06T18:25:46.172Z,26.80
2018-05-06T18:28:13.712Z,26.70
2018-05-06T18:30:42.048Z,26.50
2018-05-06T18:33:09.562Z,26.50
2018-05-06T18:35:37.078Z,26.50
2018-05-06T18:38:04.679Z,26.40
2018-05-06T18:40:32.350Z,26.30
2018-05-06T18:42:59.872Z,26.30
2018-05-06T18:45:28.179Z,25.90
2018-05-06T18:47:55.710Z,25.90
2018-05-06T18:50:23.281Z,25.80
2018-05-06T18:52:50.823Z,25.50
2018-05-06T18:55:18.349Z,25.30
2018-05-06T18:57:45.884Z,25.10
2018-05-06T19:00:13.411Z,24.90
2018-05-06T19:02:41.027Z,24.90
2018-05-06T19:05:08.623Z,24.80
2018-05-06T19:07:37.033Z,24.60
2018-05-06T19:10:04.555Z,24.60
2018-05-06T19:12:32.840Z,24.40
2018-05-06T19:15:01.131Z,24.30
2018-05-06T19:17:28.673Z,24.20
2018-05-06T19:19:56.306Z,24.20
2018-05-06T19:22:23.833Z,24.00
2018-05-06T19:24:51.357Z,23.90
2018-05-06T19:27:20.162Z,23.80
2018-05-06T19:29:47.769Z,23.50
2018-05-06T19:32:15.240Z,23.40
2018-05-06T19:34:43.526Z,23.20
2018-05-06T19:37:11.067Z,23.20
2018-05-06T19:39:39.443Z,23.00
2018-05-06T19:42:07.668Z,22.90
2018-05-06T19:44:35.223Z,22.80
2018-05-06T19:47:02.784Z,22.80
2018-05-06T19:49:30.316Z,22.70
2018-05-06T19:51:57.844Z,22.70
2018-05-06T19:54:25.366Z,22.60
2018-05-06T19:56:52.899Z,22.50
2018-05-06T19:59:20.455Z,22.40
2018-05-06T20:01:48.757Z,22.20
2018-05-06T20:04:16.294Z,22.20
2018-05-06T20:06:43.824Z,22.20
2018-05-06T20:09:12.120Z,22.00
2018-05-06T20:11:40.603Z,22.00
2018-05-06T20:14:09.216Z,22.00
2018-05-06T20:16:36.786Z,21.90
2018-05-06T20:19:04.300Z,21.80
2018-05-06T20:21:32.633Z,21.60
2018-05-06T20:24:00.137Z,21.60
2018-05-06T20:26:28.441Z,21.50
2018-05-06T20:28:56.001Z,21.50
2018-05-06T20:31:23.557Z,21.40
2018-05-06T20:33:51.838Z,21.30
2018-05-06T20:36:19.353Z,21.30
2018-05-06T20:38:47.734Z,21.10
2018-05-06T20:41:16.150Z,20.90
2018-05-06T20:43:43.716Z,20.90
2018-05-06T20:46:11.227Z,20.80
2018-05-06T20:48:38.766Z,20.70
2018-05-06T20:51:06.302Z,20.70
2018-05-06T20:53:33.830Z,20.70
2018-05-06T20:56:01.446Z,20.60
2018-05-06T20:58:28.964Z,20.60
2018-05-06T21:00:56.513Z,20.60
2018-05-06T21:03:24.040Z,20.50
2018-05-06T21:05:52.342Z,20.50
2018-05-06T21:08:19.846Z,20.50
2018-05-06T21:10:47.375Z,20.50
2018-05-06T21:13:14.936Z,20.40
2018-05-06T21:15:42.478Z,20.40
2018-05-06T21:18:10.006Z,20.30
2018-05-06T21:20:37.518Z,20.20
2018-05-06T21:23:05.063Z,20.10
2018-05-06T21:25:32.584Z,20.20
2018-05-06T21:28:00.881Z,20.10
2018-05-06T21:30:28.424Z,20.00
2018-05-06T21:32:56.711Z,20.00
2018-05-06T21:35:24.263Z,20.00
2018-05-06T21:37:52.534Z,19.80
2018-05-06T21:40:20.849Z,19.70
2018-05-06T21:42:48.388Z,19.60
2018-05-06T21:45:15.964Z,19.60
2018-05-06T21:47:43.603Z,19.60
2018-05-06T21:50:11.289Z,19.60
2018-05-06T21:52:38.836Z,19.60
2018-05-06T21:55:06.358Z,19.60
2018-05-06T21:57:33.875Z,19.40
2018-05-06T22:00:01.572Z,19.40
2018-05-06T22:02:29.096Z,19.20
2018-05-06T22:04:56.640Z,19.20
2018-05-06T22:07:24.204Z,19.10
2018-05-06T22:09:51.742Z,19.00
2018-05-06T22:12:19.410Z,19.00
2018-05-06T22:14:46.958Z,19.00
2018-05-06T22:17:14.482Z,19.00
2018-05-06T22:19:42.021Z,18.90
2018-05-06T22:22:09.536Z,18.80
2018-05-06T22:24:37.106Z,18.80
2018-05-06T22:27:04.626Z,18.70
2018-05-06T22:29:32.230Z,18.60
2018-05-06T22:31:59.839Z,18.50
2018-05-06T22:34:27.308Z,18.50
2018-05-06T22:36:54.870Z,18.50
2018-05-06T22:39:23.160Z,18.40
2018-05-06T22:41:51.483Z,18.30
2018-05-06T22:44:19.070Z,18.30
2018-05-06T22:46:46.605Z,18.30
2018-05-06T22:49:14.166Z,18.20
2018-05-06T22:51:41.719Z,18.10
2018-05-06T22:54:09.233Z,18.10
2018-05-06T22:56:36.755Z,17.90
2018-05-06T22:59:04.304Z,17.90
2018-05-06T23:01:31.858Z,17.80
2018-05-06T23:03:59.379Z,17.70
2018-05-06T23:06:26.909Z,17.70
2018-05-06T23:08:54.448Z,17.60
2018-05-06T23:11:21.980Z,17.50
2018-05-06T23:13:49.805Z,17.30
2018-05-06T23:16:18.097Z,17.30
2018-05-06T23:18:45.628Z,17.30
2018-05-06T23:21:13.167Z,17.20
2018-05-06T23:23:40.778Z,17.20
2018-05-06T23:26:08.255Z,17.10
2018-05-06T23:28:35.772Z,17.00
2018-05-06T23:31:04.068Z,16.90
2018-05-06T23:33:31.685Z,16.90
2018-05-06T23:35:59.264Z,16.80
2018-05-06T23:38:26.790Z,16.80
2018-05-06T23:40:54.311Z,16.70
2018-05-06T23:43:21.838Z,16.60
2018-05-06T23:45:49.370Z,16.60
2018-05-06T23:48:16.902Z,16.50
2018-05-06T23:50:44.445Z,16.60
2018-05-06T23:53:12.774Z,16.50
2018-05-06T23:55:40.287Z,16.50
2018-05-06T23:58:07.796Z,16.50
